createdAt,value
2023-10-23T00:04:53.787Z,7.95
2023-10-23T00:10:15.590Z,12.43
2023-10-23T00:15:37.321Z,13.43
2023-10-23T00:20:58.998Z,9.63
2023-10-23T00:26:20.649Z,8.73
2023-10-23T00:31:42.374Z,9.70
2023-10-23T00:37:04.109Z,8.93
2023-10-23T00:42:25.750Z,9.85
2023-10-23T00:47:47.870Z,9.82
2023-10-23T00:53:09.566Z,10.10
2023-10-23T00:58:32.649Z,10.95
2023-10-23T01:03:54.309Z,8.43
2023-10-23T01:09:15.921Z,9.57
2023-10-23T01:14:37.744Z,9.30
2023-10-23T01:19:59.502Z,13.98
2023-10-23T01:25:21.105Z,9.07
2023-10-23T01:30:42.734Z,11.30
2023-10-23T01:36:04.358Z,9.38
2023-10-23T01:41:25.921Z,16.27
2023-10-23T01:46:47.537Z,8.85
2023-10-23T01:52:09.128Z,9.07
2023-10-23T01:57:30.790Z,12.63
2023-10-23T02:02:52.450Z,8.48
2023-10-23T02:08:14.065Z,13.25
2023-10-23T02:13:36.307Z,10.93
2023-10-23T02:18:57.879Z,9.75
2023-10-23T02:24:20.825Z,14.25
2023-10-23T02:29:42.648Z,11.63
2023-10-23T02:35:04.575Z,10.07
2023-10-23T02:40:26.237Z,12.68
2023-10-23T02:45:48.352Z,12.10
2023-10-23T02:51:10.003Z,10.48
2023-10-23T02:56:33.199Z,11.63
2023-10-23T03:01:55.165Z,17.52
2023-10-23T03:07:16.854Z,14.48
2023-10-23T03:12:38.442Z,15.35
2023-10-23T03:18:04.702Z,18.13
2023-10-23T03:23:26.694Z,10.77
2023-10-23T03:28:48.303Z,11.95
2023-10-23T03:34:09.993Z,12.02
2023-10-23T03:39:31.749Z,9.75
2023-10-23T03:44:53.348Z,12.85
2023-10-23T03:50:15.067Z,9.80
2023-10-23T03:55:38.208Z,11.50
2023-10-23T04:00:59.925Z,10.65
2023-10-23T04:06:21.761Z,8.68
2023-10-23T04:11:43.369Z,10.07
2023-10-23T04:17:05.324Z,9.35
2023-10-23T04:22:26.937Z,10.38
2023-10-23T04:27:48.622Z,8.98
2023-10-23T04:33:10.324Z,9.05
2023-10-23T04:38:32.695Z,10.98
2023-10-23T04:43:54.868Z,11.23
2023-10-23T04:49:16.510Z,15.38
2023-10-23T04:54:38.126Z,10.70
2023-10-23T05:00:00.243Z,31.00
2023-10-23T05:05:22.357Z,40.25
2023-10-23T05:10:44.025Z,16.13
2023-10-23T05:16:06.725Z,25.45
2023-10-23T05:21:28.602Z,12.02
2023-10-23T05:26:50.216Z,10.38
2023-10-23T05:32:11.814Z,10.65
2023-10-23T05:37:36.604Z,11.95
2023-10-23T05:42:58.402Z,10.30
2023-10-23T05:48:20.081Z,10.63
2023-10-23T05:53:41.739Z,17.08
2023-10-23T05:59:04.705Z,59.10
2023-10-23T06:04:26.364Z,60.30
2023-10-23T06:09:48.170Z,12.35
2023-10-23T06:15:11.330Z,11.18
2023-10-23T06:20:35.778Z,23.60
2023-10-23T06:25:57.505Z,23.08
2023-10-23T06:31:19.252Z,10.02
2023-10-23T06:36:43.048Z,13.77
2023-10-23T06:42:05.516Z,11.65
2023-10-23T06:47:27.949Z,14.18
2023-10-23T06:52:49.539Z,27.38
2023-10-23T06:58:11.116Z,15.65
2023-10-23T07:03:32.845Z,12.23
2023-10-23T07:08:54.520Z,11.25
2023-10-23T07:14:16.320Z,10.95
2023-10-23T07:19:38.214Z,9.48
2023-10-23T07:25:00.704Z,11.82
2023-10-23T07:30:25.524Z,11.00
2023-10-23T07:35:53.442Z,13.23
2023-10-23T07:41:15.321Z,15.48
2023-10-23T07:46:37.064Z,23.25
2023-10-23T07:51:58.761Z,24.55
2023-10-23T07:57:20.373Z,25.45
2023-10-23T08:02:42.170Z,10.68
2023-10-23T08:08:05.297Z,12.93
2023-10-23T08:13:26.947Z,14.60
2023-10-23T08:18:48.567Z,14.57
2023-10-23T08:24:10.729Z,15.75
2023-10-23T08:29:32.402Z,13.90
2023-10-23T08:34:55.674Z,14.40
2023-10-23T08:40:17.320Z,14.77
2023-10-23T08:45:39.656Z,19.33
2023-10-23T08:51:01.284Z,15.40
2023-10-23T08:56:25.641Z,15.05
2023-10-23T09:01:47.503Z,14.65
2023-10-23T09:07:09.140Z,19.00
2023-10-23T09:12:32.124Z,18.67
2023-10-23T09:17:54.602Z,21.17
2023-10-23T09:23:16.359Z,49.05
2023-10-23T09:28:37.991Z,22.00
2023-10-23T09:34:01.557Z,21.70
2023-10-23T09:39:23.755Z,18.60
2023-10-23T09:44:46.883Z,20.08
2023-10-23T09:50:09.502Z,20.05
2023-10-23T09:55:36.353Z,20.52
2023-10-23T10:01:01.449Z,21.50
2023-10-23T10:06:25.632Z,24.80
2023-10-23T10:11:47.273Z,30.52
2023-10-23T10:17:11.448Z,24.65
2023-10-23T10:22:37.062Z,23.55
2023-10-23T10:28:00.205Z,22.27
2023-10-23T10:34:24.397Z,21.42
2023-10-23T10:44:29.173Z,18.23
2023-10-23T10:49:51.888Z,20.67
2023-10-23T10:55:14.056Z,21.77
2023-10-23T11:00:37.353Z,26.33
2023-10-23T11:05:59.272Z,20.67
2023-10-23T11:11:20.860Z,19.92
2023-10-23T11:16:42.550Z,20.25
2023-10-23T11:22:12.254Z,24.38
2023-10-23T11:27:34.629Z,19.77
2023-10-23T11:32:57.790Z,22.50
2023-10-23T11:38:23.766Z,21.95
2023-10-23T11:49:06.930Z,24.10
2023-10-23T11:54:29.418Z,21.17
2023-10-23T11:59:51.156Z,27.23
2023-10-23T12:05:16.158Z,22.13
2023-10-23T12:10:39.406Z,24.63
2023-10-23T12:16:01.265Z,23.95
2023-10-23T12:21:23.087Z,26.55
2023-10-23T12:26:44.656Z,24.88
2023-10-23T12:32:06.545Z,23.73
2023-10-23T12:37:28.455Z,24.98
2023-10-23T12:42:50.151Z,25.25
2023-10-23T12:48:11.942Z,26.40
2023-10-23T12:53:34.870Z,25.77
2023-10-23T12:58:56.518Z,28.20
2023-10-23T13:04:22.562Z,30.38
2023-10-23T13:09:44.247Z,37.47
2023-10-23T13:15:06.239Z,49.33
2023-10-23T13:21:30.613Z,48.88
2023-10-23T13:26:13.874Z,58.65
2023-10-23T13:31:36.311Z,60.78
2023-10-23T13:36:57.971Z,46.42
2023-10-23T13:42:19.696Z,37.08
2023-10-23T13:47:41.304Z,37.03
2023-10-23T13:53:02.936Z,32.22
2023-10-23T13:58:24.685Z,28.42
2023-10-23T14:03:46.840Z,29.55
2023-10-23T14:09:41.977Z,26.77
2023-10-23T14:14:50.658Z,22.17
2023-10-23T14:20:12.939Z,23.02
2023-10-23T14:25:34.545Z,24.73
2023-10-23T14:30:56.352Z,21.58
2023-10-23T14:36:17.962Z,22.13
2023-10-23T14:41:39.551Z,23.90
2023-10-23T14:47:01.202Z,26.55
2023-10-23T14:52:22.894Z,24.92
2023-10-23T14:57:45.404Z,25.50
2023-10-23T15:03:07.605Z,24.90
2023-10-23T15:08:29.231Z,25.20
2023-10-23T15:13:51.603Z,25.15
2023-10-23T15:19:13.276Z,21.25
2023-10-23T15:24:34.906Z,20.17
2023-10-23T15:29:56.521Z,19.58
2023-10-23T15:35:18.142Z,21.77
2023-10-23T15:40:39.785Z,23.77
2023-10-23T15:46:01.704Z,20.27
2023-10-23T15:51:23.534Z,22.38
2023-10-23T15:56:46.827Z,23.25
2023-10-23T16:02:08.828Z,24.55
2023-10-23T16:07:30.536Z,23.17
2023-10-23T16:12:52.171Z,26.58
2023-10-23T16:18:16.100Z,26.35
2023-10-23T16:23:37.752Z,27.83
2023-10-23T16:28:59.353Z,28.23
2023-10-23T16:34:20.972Z,28.95
2023-10-23T16:39:42.661Z,31.40
2023-10-23T16:45:04.696Z,26.45
2023-10-23T16:50:25.480Z,30.67
2023-10-23T16:55:53.772Z,31.38
2023-10-23T17:01:15.845Z,32.25
2023-10-23T17:06:38.701Z,31.73
2023-10-23T17:12:00.643Z,28.20
2023-10-23T17:17:22.621Z,29.80
2023-10-23T17:22:45.997Z,27.27
2023-10-23T17:28:11.330Z,28.70
2023-10-23T17:33:34.291Z,31.55
2023-10-23T17:38:57.186Z,27.70
2023-10-23T17:44:20.415Z,28.55
2023-10-23T17:49:44.012Z,25.13
2023-10-23T17:55:06.678Z,26.95
2023-10-23T18:00:28.847Z,25.58
2023-10-23T18:06:00.328Z,25.33
2023-10-23T18:11:22.249Z,24.02
2023-10-23T18:16:44.378Z,25.52
2023-10-23T18:22:06.503Z,28.45
2023-10-23T18:27:28.594Z,25.95
2023-10-23T18:32:50.617Z,22.73
2023-10-23T18:38:13.104Z,24.65
2023-10-23T18:43:35.072Z,22.85
2023-10-23T18:48:59.196Z,20.70
2023-10-23T18:54:21.264Z,22.60
2023-10-23T18:59:43.461Z,21.90
2023-10-23T19:05:05.843Z,21.60
2023-10-23T19:10:27.887Z,23.48
2023-10-23T19:16:00.187Z,24.52
2023-10-23T19:21:22.169Z,18.63
2023-10-23T19:26:45.236Z,20.75
2023-10-23T19:32:08.016Z,18.98
2023-10-23T19:37:30.410Z,24.67
2023-10-23T19:42:54.196Z,18.63
2023-10-23T19:48:16.906Z,16.60
2023-10-23T19:53:39.316Z,14.68
2023-10-23T19:59:03.807Z,21.08
2023-10-23T20:04:26.370Z,15.60
2023-10-23T20:09:48.488Z,15.00
2023-10-23T20:15:10.933Z,14.88
2023-10-23T20:20:32.949Z,16.95
2023-10-23T20:25:54.860Z,12.80
2023-10-23T20:31:18.965Z,13.25
2023-10-23T20:36:41.096Z,16.45
2023-10-23T20:42:03.073Z,12.85
2023-10-23T20:47:24.999Z,11.20
2023-10-23T20:52:46.959Z,12.65
2023-10-23T20:58:08.990Z,12.07
2023-10-23T21:03:30.993Z,13.88
2023-10-23T21:08:53.926Z,18.23
2023-10-23T21:14:15.867Z,11.73
2023-10-23T21:19:37.848Z,13.05
2023-10-23T21:24:59.854Z,16.23
2023-10-23T21:30:22.636Z,13.13
2023-10-23T21:35:44.658Z,18.58
2023-10-23T21:41:07.688Z,12.18
2023-10-23T21:46:30.091Z,12.65
2023-10-23T21:51:52.213Z,14.70
2023-10-23T21:57:20.510Z,15.73
2023-10-23T22:02:44.519Z,15.43
2023-10-23T22:08:06.887Z,14.07
2023-10-23T22:13:29.044Z,12.60
2023-10-23T22:18:51.883Z,13.30
2023-10-23T22:24:13.780Z,14.50
2023-10-23T22:29:35.658Z,9.80
2023-10-23T22:34:57.672Z,12.13
2023-10-23T22:40:19.745Z,11.68
2023-10-23T22:45:55.154Z,10.77
2023-10-23T22:51:21.740Z,13.82
2023-10-23T22:56:46.776Z,12.07
2023-10-23T23:02:09.240Z,11.70
2023-10-23T23:07:37.001Z,14.73
2023-10-23T23:12:59.292Z,9.23
2023-10-23T23:18:22.567Z,12.25
2023-10-23T23:23:44.556Z,10.85
2023-10-23T23:29:06.496Z,13.48
2023-10-23T23:34:28.577Z,15.38
2023-10-23T23:39:50.552Z,12.10
2023-10-23T23:45:12.470Z,13.55
2023-10-23T23:50:34.425Z,14.93
2023-10-23T23:55:56.433Z,11.10
